KCVN/CVN METAR and TAF weather

Enter ICAO airport designator
Station Type Date Time Source
KCVN METAR 2021/10/24 21:56 UTC NOAA

KCVN 242156Z AUTO 25013G18KT 10SM CLR 26/M01 A2992 RMK AO2 SLP097 T02611006


Station Type Date Time Source
KCVN Decoded METAR 2021/10/24 21:56 UTC NOAA

Clovis, Clovis Municipal Airport, NM, United States (KCVN) 34-26N 103-05W
Oct 24, 2021 - 05:56 PM EDT / 2021.10.24 2156 UTC
Wind: from the WSW (250 degrees) at 15 MPH (13 KT) gusting to 21 MPH (18 KT):0
Visibility: 10 mile(s):0
Sky conditions: clear
Temperature: 79.0 F (26.1 C)
Dew Point: 30.9 F (-0.6 C)
Relative Humidity: 17%
Pressure (altimeter): 29.92 in. Hg (1013 hPa)
ob: KCVN 242156Z AUTO 25013G18KT 10SM CLR 26/M01 A2992 RMK AO2 SLP097 T02611006
cycle: 22

Station Type Date Time Source
KCVN TAF UTC NOAA

Error!

Example: see airport list